Time;durP1;ratioP1;P1;durP2;ratioP2;P2;SDS_P1;SDS_P2;PMS_P1;PMS_P2;Temp;Humidity;BMP_temperature;BMP_pressure;BME280_temperature;BME280_humidity;BME280_pressure;Samples;Min_cycle;Max_cycle;Signal;HPM_P1;HPM_P2
2023/06/26 00:00:32;;;;;;;6.67;5.57;;;25.00;71.30;;;;;;5000701;28;20304;-76
2023/06/26 00:02:58;;;;;;;6.03;5.50;;;25.10;71.00;;;;;;5001817;28;20244;-71
2023/06/26 00:05:23;;;;;;;6.20;5.23;;;25.00;71.00;;;;;;4994221;28;20248;-72
2023/06/26 00:07:49;;;;;;;6.43;5.73;;;25.00;71.10;;;;;;5004461;28;20267;-70
2023/06/26 00:10:15;;;;;;;5.73;5.23;;;24.90;71.10;;;;;;4998161;28;20218;-71
2023/06/26 00:12:40;;;;;;;5.40;4.90;;;24.90;71.40;;;;;;5008237;28;20213;-74
2023/06/26 00:15:07;;;;;;;6.30;5.70;;;24.90;71.40;;;;;;4998716;28;20221;-72
2023/06/26 00:17:36;;;;;;;6.23;5.40;;;24.80;71.50;;;;;;5002765;28;20229;-72
2023/06/26 00:20:03;;;;;;;6.10;5.60;;;24.80;71.60;;;;;;4995738;28;20985;-74
2023/06/26 00:22:32;;;;;;;6.00;5.50;;;24.80;71.60;;;;;;5004822;28;20464;-72
2023/06/26 00:24:57;;;;;;;7.33;5.83;;;24.70;71.70;;;;;;4983589;28;20471;-71
2023/06/26 00:27:23;;;;;;;7.60;6.60;;;24.50;72.20;;;;;;4983878;28;20991;-71
2023/06/26 00:29:49;;;;;;;5.50;5.00;;;24.40;72.50;;;;;;5012572;28;20221;-72
2023/06/26 00:32:14;;;;;;;5.67;5.17;;;24.30;72.60;;;;;;5000194;28;20228;-74
2023/06/26 00:34:40;;;;;;;6.00;4.97;;;24.30;72.60;;;;;;4998398;28;20234;-72
2023/06/26 00:37:07;;;;;;;10.63;6.10;;;24.30;72.60;;;;;;4986366;28;20224;-71
2023/06/26 00:39:33;;;;;;;6.40;5.70;;;24.40;72.80;;;;;;5005012;28;20452;-71
2023/06/26 00:42:00;;;;;;;6.23;5.33;;;24.30;72.80;;;;;;5000387;28;20305;-74
2023/06/26 00:44:26;;;;;;;5.90;5.30;;;24.20;73.00;;;;;;4978907;28;20535;-72
2023/06/26 00:46:52;;;;;;;6.37;5.77;;;23.90;73.20;;;;;;5001589;28;20256;-72
2023/06/26 00:49:18;;;;;;;6.73;5.23;;;24.10;73.50;;;;;;4996001;28;20683;-72
2023/06/26 00:51:44;;;;;;;6.53;5.93;;;24.10;73.20;;;;;;5002648;28;20217;-71
2023/06/26 00:54:10;;;;;;;5.47;4.97;;;24.20;73.10;;;;;;5003877;28;20487;-71
2023/06/26 00:56:36;;;;;;;5.90;5.30;;;24.10;73.30;;;;;;4984846;28;20256;-72
2023/06/26 00:59:04;;;;;;;6.13;5.63;;;24.00;73.10;;;;;;4987315;28;20602;-71
2023/06/26 01:01:30;;;;;;;5.70;4.87;;;24.10;73.10;;;;;;4985402;28;20484;-71
2023/06/26 01:03:56;;;;;;;6.87;5.83;;;24.10;73.00;;;;;;4993345;28;20243;-73
2023/06/26 01:06:27;;;;;;;6.27;5.67;;;24.00;73.30;;;;;;5002297;28;20699;-71
2023/06/26 01:08:55;;;;;;;5.80;5.23;;;24.00;73.30;;;;;;4984014;28;20498;-71
2023/06/26 01:11:20;;;;;;;5.87;5.27;;;24.10;73.30;;;;;;5000761;28;21008;-72
2023/06/26 01:13:46;;;;;;;5.97;5.47;;;23.90;73.30;;;;;;5000416;28;20230;-71
2023/06/26 01:16:13;;;;;;;6.17;5.57;;;23.90;73.40;;;;;;4983309;28;20209;-72
2023/06/26 01:18:41;;;;;;;5.90;5.40;;;23.80;73.60;;;;;;4983001;28;20269;-72
2023/06/26 01:21:09;;;;;;;6.03;5.20;;;23.70;73.70;;;;;;4981494;28;20495;-72
2023/06/26 01:24:06;;;;;;;6.57;5.67;;;23.70;73.80;;;;;;5000854;28;20460;-72
2023/06/26 01:26:35;;;;;;;11.40;5.60;;;23.70;74.00;;;;;;5000065;28;20447;-72
2023/06/26 01:29:02;;;;;;;6.63;6.03;;;23.80;73.80;;;;;;4995007;28;20462;-72
2023/06/26 01:31:30;;;;;;;7.03;5.60;;;23.80;73.80;;;;;;4988083;28;20455;-72
2023/06/26 01:33:58;;;;;;;6.93;6.10;;;23.60;74.30;;;;;;4986078;28;20552;-72
2023/06/26 01:36:25;;;;;;;6.13;5.53;;;23.60;74.30;;;;;;4982971;28;20824;-71
2023/06/26 01:38:51;;;;;;;5.63;5.17;;;23.70;74.30;;;;;;4998743;28;20456;-73
2023/06/26 01:41:18;;;;;;;5.93;5.43;;;23.70;74.10;;;;;;4982821;28;20460;-71
2023/06/26 01:44:09;;;;;;;7.47;5.27;;;23.60;74.10;;;;;;5000961;28;20240;-72
2023/06/26 01:46:56;;;;;;;5.40;4.80;;;23.60;74.30;;;;;;4998721;28;20464;-72
2023/06/26 01:49:34;;;;;;;6.47;5.87;;;23.50;74.50;;;;;;5000898;28;20470;-72
2023/06/26 01:52:06;;;;;;;7.17;5.90;;;23.40;74.30;;;;;;4983315;28;21074;-72
2023/06/26 01:54:39;;;;;;;7.90;6.13;;;23.30;74.70;;;;;;5005611;28;20464;-71
2023/06/26 01:57:07;;;;;;;6.93;6.13;;;23.40;74.90;;;;;;5002218;28;20547;-71
2023/06/26 01:59:34;;;;;;;9.60;5.50;;;23.40;74.90;;;;;;4995945;28;20487;-71
2023/06/26 02:02:01;;;;;;;6.67;6.07;;;23.30;74.90;;;;;;4975228;28;21014;-71
2023/06/26 02:04:27;;;;;;;6.33;5.73;;;23.30;75.00;;;;;;5002232;28;20522;-72
2023/06/26 02:06:54;;;;;;;7.70;5.07;;;23.30;75.10;;;;;;4981413;28;20472;-72
2023/06/26 02:09:20;;;;;;;7.17;5.67;;;23.20;74.80;;;;;;4980132;28;20737;-71
2023/06/26 02:11:45;;;;;;;5.93;5.33;;;23.10;75.50;;;;;;5004373;28;20480;-72
2023/06/26 02:14:12;;;;;;;5.60;5.10;;;23.10;75.30;;;;;;5000021;28;20781;-71
2023/06/26 02:16:38;;;;;;;6.67;5.83;;;23.10;76.00;;;;;;4984912;28;20291;-72
2023/06/26 02:19:05;;;;;;;5.97;5.47;;;23.00;75.20;;;;;;4986540;28;20456;-72
2023/06/26 02:21:31;;;;;;;8.40;5.60;;;23.10;75.00;;;;;;5004036;28;20456;-71
2023/06/26 02:24:00;;;;;;;5.90;5.30;;;23.10;75.00;;;;;;5003968;28;20221;-72
2023/06/26 02:26:25;;;;;;;6.37;5.77;;;23.10;75.20;;;;;;5003410;28;20725;-72
2023/06/26 02:28:51;;;;;;;5.90;4.93;;;22.90;75.30;;;;;;5006337;28;20482;-70
2023/06/26 02:31:17;;;;;;;7.30;6.07;;;22.80;75.50;;;;;;5005237;28;20205;-72
2023/06/26 02:33:45;;;;;;;5.77;5.17;;;22.80;75.90;;;;;;5006844;28;20225;-71
2023/06/26 02:36:10;;;;;;;7.03;4.93;;;22.90;75.50;;;;;;4999101;28;20213;-71
2023/06/26 02:38:36;;;;;;;7.40;5.70;;;22.90;75.20;;;;;;5020456;28;20464;-71
2023/06/26 02:41:02;;;;;;;5.77;5.20;;;22.90;75.00;;;;;;5007399;28;20210;-71
2023/06/26 02:43:28;;;;;;;5.83;5.13;;;22.90;75.50;;;;;;4987970;28;20455;-72
2023/06/26 02:45:55;;;;;;;5.93;5.30;;;22.90;75.40;;;;;;5012622;28;20236;-72
2023/06/26 02:48:20;;;;;;;5.20;4.70;;;22.90;75.40;;;;;;4988000;28;20475;-72
2023/06/26 02:50:46;;;;;;;6.87;6.27;;;22.90;75.30;;;;;;5007401;28;20217;-72
2023/06/26 02:53:13;;;;;;;5.83;5.33;;;22.90;75.50;;;;;;4999228;28;20726;-71
2023/06/26 02:55:42;;;;;;;7.17;5.70;;;22.80;75.60;;;;;;4986291;28;20502;-71
2023/06/26 02:58:08;;;;;;;6.70;5.60;;;22.60;75.50;;;;;;4983858;28;20496;-71
2023/06/26 03:00:38;;;;;;;5.10;4.60;;;22.70;76.10;;;;;;4994712;28;20225;-72
2023/06/26 03:03:04;;;;;;;6.13;5.47;;;22.70;76.10;;;;;;4996804;28;20472;-72
2023/06/26 03:05:30;;;;;;;5.53;4.97;;;22.60;76.00;;;;;;4985691;28;20467;-72
2023/06/26 03:07:56;;;;;;;5.50;5.00;;;22.60;76.20;;;;;;5006615;28;20236;-71
2023/06/26 03:10:22;;;;;;;5.33;4.50;;;22.50;76.10;;;;;;4998287;28;20978;-71
2023/06/26 03:12:48;;;;;;;6.37;5.73;;;22.50;76.30;;;;;;4985635;28;20568;-71
2023/06/26 03:15:15;;;;;;;5.87;4.73;;;22.40;76.30;;;;;;4984890;28;20252;-71
2023/06/26 03:17:41;;;;;;;7.20;5.10;;;22.40;76.50;;;;;;5003311;28;20503;-71
2023/06/26 03:20:11;;;;;;;6.13;5.57;;;22.40;76.40;;;;;;5004311;28;20213;-71
2023/06/26 03:22:48;;;;;;;7.40;4.93;;;22.40;76.70;;;;;;5006273;28;20467;-71
2023/06/26 03:25:16;;;;;;;6.70;6.00;;;22.40;76.60;;;;;;4985395;28;20461;-72
2023/06/26 03:27:41;;;;;;;5.60;5.10;;;22.40;76.50;;;;;;5015666;28;20533;-72
2023/06/26 03:30:08;;;;;;;5.40;4.90;;;22.40;76.80;;;;;;4979286;28;20679;-72
2023/06/26 03:32:36;;;;;;;8.10;5.63;;;22.30;76.70;;;;;;5001031;28;20854;-72
2023/06/26 03:35:03;;;;;;;6.07;5.50;;;22.30;77.60;;;;;;5004080;28;20480;-72
2023/06/26 03:37:29;;;;;;;7.40;5.60;;;22.30;77.10;;;;;;5002554;28;20221;-72
2023/06/26 03:39:57;;;;;;;7.10;5.60;;;22.20;76.90;;;;;;4988536;28;20846;-71
2023/06/26 03:42:23;;;;;;;6.53;4.90;;;22.30;76.90;;;;;;5013569;28;20637;-71
2023/06/26 03:44:49;;;;;;;6.10;5.00;;;22.30;76.60;;;;;;5008594;28;20532;-71
2023/06/26 03:47:17;;;;;;;6.77;6.13;;;22.20;76.70;;;;;;4989492;28;20347;-71
2023/06/26 03:49:42;;;;;;;7.47;5.10;;;22.20;76.80;;;;;;5001147;28;20919;-72
2023/06/26 03:52:09;;;;;;;6.00;5.40;;;22.20;76.90;;;;;;4998470;28;20233;-70
2023/06/26 03:54:35;;;;;;;5.90;5.30;;;22.10;77.00;;;;;;4995440;28;20469;-70
2023/06/26 03:57:01;;;;;;;8.20;5.47;;;22.10;77.50;;;;;;5001413;28;20275;-72
2023/06/26 03:59:27;;;;;;;5.07;4.60;;;21.90;77.80;;;;;;5003405;28;20300;-74
2023/06/26 04:01:53;;;;;;;9.80;5.90;;;21.80;77.80;;;;;;5003879;28;20775;-69
2023/06/26 04:04:19;;;;;;;5.67;5.03;;;21.90;78.00;;;;;;4999661;28;20289;-72
2023/06/26 04:06:46;;;;;;;5.23;4.47;;;22.00;78.20;;;;;;4981964;28;20480;-72
2023/06/26 04:09:12;;;;;;;6.50;5.80;;;22.00;77.90;;;;;;4993328;28;20470;-72
2023/06/26 04:11:37;;;;;;;5.73;5.20;;;22.10;77.70;;;;;;5011115;28;20458;-72
2023/06/26 04:14:03;;;;;;;7.37;5.83;;;22.00;77.40;;;;;;5007302;28;20225;-73
2023/06/26 04:16:29;;;;;;;6.47;5.87;;;22.00;78.00;;;;;;4998147;28;20232;-72
2023/06/26 04:18:56;;;;;;;6.20;5.30;;;22.00;77.80;;;;;;5008418;28;20209;-72
2023/06/26 04:21:24;;;;;;;6.23;4.80;;;22.00;78.00;;;;;;5000268;28;20268;-73
2023/06/26 04:23:50;;;;;;;12.07;5.67;;;22.00;78.50;;;;;;5004191;28;20539;-72
2023/06/26 04:26:16;;;;;;;6.20;5.60;;;22.00;78.20;;;;;;5006697;28;20514;-73
2023/06/26 04:28:43;;;;;;;6.80;6.10;;;22.10;78.20;;;;;;4999982;28;20453;-72
2023/06/26 04:31:09;;;;;;;7.30;6.00;;;22.10;78.20;;;;;;5005386;28;20232;-72
2023/06/26 04:33:38;;;;;;;7.07;5.80;;;22.20;77.80;;;;;;5014743;28;20468;-72
2023/06/26 04:36:05;;;;;;;5.33;4.83;;;22.20;78.10;;;;;;5004119;28;20949;-72
2023/06/26 04:38:32;;;;;;;5.50;4.93;;;22.20;78.30;;;;;;4983957;28;20463;-72
2023/06/26 04:40:57;;;;;;;6.27;5.53;;;22.20;78.70;;;;;;5000654;28;20647;-72
2023/06/26 04:43:23;;;;;;;5.53;5.07;;;22.20;78.70;;;;;;4997960;28;20460;-73
2023/06/26 04:45:49;;;;;;;7.30;5.47;;;22.30;78.80;;;;;;5001048;28;20217;-72
2023/06/26 04:48:14;;;;;;;6.70;5.33;;;22.20;79.00;;;;;;5006222;28;20293;-73
2023/06/26 04:50:40;;;;;;;7.03;5.50;;;22.30;79.20;;;;;;5005352;28;20304;-72
2023/06/26 04:53:06;;;;;;;8.13;5.27;;;22.30;79.30;;;;;;4990400;28;20215;-72
2023/06/26 04:55:32;;;;;;;5.67;5.17;;;22.30;79.50;;;;;;5004872;28;20221;-72
2023/06/26 04:57:57;;;;;;;7.47;5.80;;;22.30;79.10;;;;;;5000480;28;20313;-73
2023/06/26 05:00:24;;;;;;;6.20;5.60;;;22.40;79.50;;;;;;4991134;28;20225;-72
2023/06/26 05:03:00;;;;;;;7.67;6.43;;;22.30;79.90;;;;;;5001504;28;20598;-73
2023/06/26 05:05:26;;;;;;;7.23;6.00;;;22.30;80.10;;;;;;5001806;28;20452;-72
2023/06/26 05:07:53;;;;;;;6.53;5.83;;;22.40;80.70;;;;;;5002168;28;20452;-72
2023/06/26 05:10:19;;;;;;;7.27;6.30;;;22.40;80.00;;;;;;4998489;28;20469;-73
2023/06/26 05:12:44;;;;;;;5.90;5.30;;;22.40;80.10;;;;;;4987953;28;20467;-75
2023/06/26 05:15:10;;;;;;;6.90;5.60;;;22.50;80.80;;;;;;4997064;28;20252;-70
2023/06/26 05:17:36;;;;;;;8.50;6.00;;;22.50;80.00;;;;;;4999038;28;20209;-71
2023/06/26 05:20:03;;;;;;;9.17;6.23;;;22.50;80.30;;;;;;5002280;28;20729;-71
2023/06/26 05:22:29;;;;;;;6.00;5.40;;;22.50;80.30;;;;;;4997169;28;20236;-72
2023/06/26 05:24:58;;;;;;;8.50;5.37;;;22.60;80.20;;;;;;5000914;28;20456;-72
2023/06/26 05:27:25;;;;;;;6.60;5.53;;;22.60;81.70;;;;;;4995412;28;20463;-72
2023/06/26 05:29:51;;;;;;;5.63;5.13;;;22.60;81.80;;;;;;4998986;28;20506;-73
2023/06/26 05:32:20;;;;;;;5.57;5.03;;;22.60;82.20;;;;;;5003815;28;20495;-73
2023/06/26 05:34:50;;;;;;;7.10;5.60;;;22.70;83.70;;;;;;5005549;28;20229;-73
2023/06/26 05:37:21;;;;;;;7.40;6.17;;;22.70;83.20;;;;;;5001583;28;20514;-72
2023/06/26 05:39:47;;;;;;;6.70;5.87;;;22.70;83.90;;;;;;4995535;28;20468;-72
2023/06/26 05:42:13;;;;;;;7.50;5.37;;;22.80;85.00;;;;;;4997620;28;20463;-73
2023/06/26 05:44:39;;;;;;;7.20;6.13;;;22.80;84.40;;;;;;4983189;28;20460;-73
2023/06/26 05:47:05;;;;;;;7.40;5.80;;;22.90;85.00;;;;;;5002108;28;20470;-73
2023/06/26 05:49:31;;;;;;;8.13;6.40;;;22.80;83.00;;;;;;5002584;28;20783;-73
2023/06/26 05:51:56;;;;;;;6.23;5.40;;;22.90;84.10;;;;;;4997568;28;20213;-72
2023/06/26 05:54:24;;;;;;;6.60;5.40;;;23.00;85.40;;;;;;4995062;28;20611;-72
2023/06/26 05:56:55;;;;;;;7.33;6.30;;;23.00;84.00;;;;;;4978219;28;20696;-71
2023/06/26 05:59:22;;;;;;;7.70;5.90;;;23.00;84.20;;;;;;4983200;28;20453;-73
2023/06/26 06:01:47;;;;;;;7.07;5.67;;;23.00;84.40;;;;;;4999466;28;20477;-72
2023/06/26 06:04:13;;;;;;;5.50;5.03;;;23.10;83.60;;;;;;4979803;28;20492;-74
2023/06/26 06:06:39;;;;;;;8.43;6.33;;;23.10;84.00;;;;;;4999641;28;20276;-73
2023/06/26 06:09:04;;;;;;;7.40;6.67;;;23.10;83.60;;;;;;4986067;28;20636;-72
2023/06/26 06:11:30;;;;;;;6.30;5.70;;;23.10;83.50;;;;;;4992843;28;20249;-72
2023/06/26 06:13:56;;;;;;;5.90;5.30;;;23.20;84.90;;;;;;4981953;28;20283;-71
2023/06/26 06:16:21;;;;;;;6.93;5.97;;;23.20;84.40;;;;;;4997139;28;20217;-72
2023/06/26 06:18:47;;;;;;;6.50;5.90;;;23.20;83.50;;;;;;5004138;28;20217;-71
2023/06/26 06:21:13;;;;;;;12.80;5.47;;;23.30;85.00;;;;;;4981131;28;20711;-70
2023/06/26 06:23:38;;;;;;;6.00;5.40;;;23.40;85.80;;;;;;4982039;28;20724;-71
2023/06/26 06:26:04;;;;;;;7.73;6.40;;;23.60;86.90;;;;;;5001753;28;20237;-71
2023/06/26 06:28:29;;;;;;;5.90;5.30;;;23.70;87.10;;;;;;4997434;28;20217;-75
2023/06/26 06:30:55;;;;;;;6.50;5.77;;;23.80;87.30;;;;;;4998125;28;20304;-70
2023/06/26 06:33:21;;;;;;;6.90;5.80;;;23.90;87.40;;;;;;4998354;28;20305;-71
2023/06/26 06:35:46;;;;;;;6.03;5.43;;;24.00;87.70;;;;;;4997385;28;20630;-72
2023/06/26 06:38:12;;;;;;;8.90;7.03;;;24.10;88.10;;;;;;4994533;28;20316;-75
2023/06/26 06:40:38;;;;;;;5.67;5.13;;;24.10;86.80;;;;;;4996846;28;20301;-72
2023/06/26 06:43:03;;;;;;;6.40;5.80;;;24.10;87.30;;;;;;4997104;28;20232;-71
2023/06/26 06:45:29;;;;;;;6.73;6.03;;;24.10;86.80;;;;;;4979406;28;20222;-73
2023/06/26 06:47:55;;;;;;;6.83;5.97;;;24.10;86.60;;;;;;4989932;28;20205;-71
2023/06/26 06:50:20;;;;;;;6.53;5.87;;;24.10;86.40;;;;;;5000994;28;20565;-71
2023/06/26 06:52:49;;;;;;;6.60;6.00;;;23.90;86.10;;;;;;5010167;28;20640;-72
2023/06/26 06:55:15;;;;;;;7.60;6.57;;;24.00;86.90;;;;;;5004149;28;20230;-71
2023/06/26 06:57:40;;;;;;;8.30;5.90;;;24.10;86.50;;;;;;5000384;28;21071;-71
2023/06/26 07:00:11;;;;;;;6.30;5.80;;;24.10;85.70;;;;;;4987891;28;20702;-73
2023/06/26 07:02:39;;;;;;;7.17;6.47;;;24.30;85.80;;;;;;4998084;28;20222;-71
2023/06/26 07:05:05;;;;;;;6.23;5.50;;;24.40;84.40;;;;;;5018437;28;20521;-72
2023/06/26 07:07:32;;;;;;;7.53;6.17;;;24.40;83.80;;;;;;4982234;28;20480;-72
2023/06/26 07:10:00;;;;;;;8.10;6.60;;;24.40;83.90;;;;;;5009233;28;20460;-72
2023/06/26 07:12:25;;;;;;;6.10;5.50;;;24.40;83.10;;;;;;5010046;28;20460;-71
2023/06/26 07:14:51;;;;;;;7.40;6.20;;;24.50;82.60;;;;;;5008341;28;20488;-71
2023/06/26 07:17:17;;;;;;;6.90;6.20;;;24.60;82.70;;;;;;4990273;28;20224;-71
2023/06/26 07:19:42;;;;;;;7.83;6.83;;;24.80;82.70;;;;;;5005742;28;20683;-71
2023/06/26 07:22:08;;;;;;;7.33;6.63;;;24.90;82.70;;;;;;4996292;28;20224;-72
2023/06/26 07:24:34;;;;;;;7.20;6.50;;;24.90;82.30;;;;;;5005812;28;20304;-73
2023/06/26 07:27:00;;;;;;;6.63;6.00;;;25.00;82.50;;;;;;5008146;28;20241;-72
2023/06/26 07:29:26;;;;;;;6.47;5.80;;;25.00;82.20;;;;;;5010980;28;20657;-71
2023/06/26 07:31:51;;;;;;;7.27;6.60;;;25.10;82.80;;;;;;5006688;28;20544;-71
2023/06/26 07:34:17;;;;;;;6.77;6.07;;;25.30;82.60;;;;;;5008236;28;20221;-73
2023/06/26 07:36:43;;;;;;;7.50;6.63;;;25.40;81.70;;;;;;5006857;28;20312;-72
2023/06/26 07:39:08;;;;;;;7.10;6.17;;;25.50;80.90;;;;;;5003881;28;20233;-71
2023/06/26 07:41:34;;;;;;;7.10;6.40;;;25.60;80.80;;;;;;4998055;28;20272;-71
2023/06/26 07:44:00;;;;;;;7.63;6.40;;;25.60;80.80;;;;;;5005585;28;20296;-71
2023/06/26 07:46:26;;;;;;;8.67;6.67;;;25.70;80.90;;;;;;5000138;28;20241;-71
2023/06/26 07:48:51;;;;;;;7.47;6.67;;;25.80;81.20;;;;;;5007595;28;20223;-72
2023/06/26 07:51:17;;;;;;;7.30;6.60;;;25.80;81.20;;;;;;5006346;28;20687;-71
2023/06/26 07:53:43;;;;;;;8.00;6.80;;;25.80;81.40;;;;;;5006380;28;20566;-71
2023/06/26 07:56:08;;;;;;;6.60;6.00;;;25.90;81.50;;;;;;4990119;28;20276;-71
2023/06/26 07:58:34;;;;;;;6.90;6.30;;;26.00;81.60;;;;;;5000499;28;20461;-71
2023/06/26 08:01:00;;;;;;;6.80;6.00;;;26.00;82.10;;;;;;4998955;28;20256;-71
2023/06/26 08:03:25;;;;;;;7.60;6.80;;;26.10;81.70;;;;;;5006187;28;20221;-74
2023/06/26 08:05:51;;;;;;;7.10;6.40;;;26.20;81.90;;;;;;5007121;28;20218;-71
2023/06/26 08:08:17;;;;;;;7.50;6.53;;;26.30;81.80;;;;;;5009342;28;20699;-71
2023/06/26 08:10:42;;;;;;;7.67;6.97;;;26.50;81.90;;;;;;4986484;28;20217;-70
2023/06/26 08:13:08;;;;;;;6.73;6.00;;;26.50;81.40;;;;;;4997384;28;20220;-72
2023/06/26 08:15:34;;;;;;;7.60;6.80;;;26.60;81.70;;;;;;5006749;28;20243;-74
2023/06/26 08:17:59;;;;;;;7.57;6.87;;;26.70;81.90;;;;;;5007265;28;20236;-72
2023/06/26 08:20:25;;;;;;;7.10;6.50;;;26.70;81.50;;;;;;4994149;28;20229;-71
2023/06/26 08:22:52;;;;;;;8.43;7.03;;;26.90;81.10;;;;;;4988176;28;20234;-71
2023/06/26 08:25:18;;;;;;;7.67;6.70;;;26.90;80.90;;;;;;5002574;28;20217;-73
2023/06/26 08:27:43;;;;;;;7.70;7.00;;;26.90;80.90;;;;;;5000895;28;20222;-71
2023/06/26 08:30:09;;;;;;;6.97;6.37;;;26.90;81.00;;;;;;5001174;28;20229;-72
2023/06/26 08:32:35;;;;;;;10.23;6.30;;;27.00;80.90;;;;;;5002087;28;20229;-74
2023/06/26 08:35:01;;;;;;;7.57;6.80;;;27.00;81.20;;;;;;4999178;28;21008;-71
2023/06/26 08:37:26;;;;;;;8.53;7.50;;;27.10;81.00;;;;;;5007211;28;20216;-73
2023/06/26 08:39:52;;;;;;;7.57;6.87;;;27.20;81.30;;;;;;5007264;28;20608;-71
2023/06/26 08:42:17;;;;;;;7.33;6.60;;;27.40;81.50;;;;;;5007029;28;20222;-71
2023/06/26 08:44:43;;;;;;;7.50;6.73;;;27.50;81.20;;;;;;5006616;28;20221;-71
2023/06/26 08:47:12;;;;;;;8.37;7.23;;;27.50;81.00;;;;;;5007798;28;20244;-72
2023/06/26 08:49:50;;;;;;;7.13;6.43;;;27.60;81.10;;;;;;5004734;28;20218;-72
2023/06/26 08:52:37;;;;;;;7.30;6.60;;;27.70;80.00;;;;;;4976048;28;20483;-72
2023/06/26 08:55:08;;;;;;;8.57;7.15;;;27.80;80.90;;;;;;4995422;28;20232;-73
2023/06/26 08:57:35;;;;;;;6.70;6.10;;;27.70;80.60;;;;;;4984667;28;20228;-72
2023/06/26 09:00:01;;;;;;;6.55;5.95;;;27.80;80.60;;;;;;4991066;28;20217;-71
2023/06/26 09:02:27;;;;;;;8.50;7.75;;;27.90;80.40;;;;;;4997719;28;20233;-72
2023/06/26 09:04:52;;;;;;;7.68;6.97;;;27.90;79.90;;;;;;5004354;28;20625;-71
2023/06/26 09:07:18;;;;;;;8.20;6.53;;;27.90;80.30;;;;;;5005435;28;20217;-71
2023/06/26 09:09:44;;;;;;;11.70;6.57;;;28.30;80.70;;;;;;5003987;28;20282;-72
2023/06/26 09:12:10;;;;;;;7.13;6.53;;;28.40;79.70;;;;;;5000896;28;20221;-71
2023/06/26 09:14:38;;;;;;;7.15;6.55;;;28.50;79.40;;;;;;4980521;28;20673;-71
2023/06/26 09:17:03;;;;;;;7.80;7.00;;;28.50;79.90;;;;;;4982652;28;20210;-71
2023/06/26 09:19:29;;;;;;;7.78;6.95;;;28.50;79.50;;;;;;4999358;28;20236;-71
2023/06/26 09:21:55;;;;;;;7.88;6.60;;;28.80;78.50;;;;;;5005407;28;20248;-72
2023/06/26 09:24:22;;;;;;;7.43;6.80;;;28.80;79.00;;;;;;5001911;28;20225;-74
2023/06/26 09:26:51;;;;;;;7.70;6.97;;;28.80;78.50;;;;;;4998176;28;20865;-72
2023/06/26 09:29:17;;;;;;;6.80;6.15;;;29.00;77.60;;;;;;5006367;28;20222;-72
2023/06/26 09:31:44;;;;;;;7.18;6.00;;;28.90;77.00;;;;;;5003968;28;20734;-71
2023/06/26 09:34:10;;;;;;;7.75;6.60;;;28.90;77.20;;;;;;5004745;28;20356;-75
2023/06/26 09:36:36;;;;;;;6.90;6.30;;;28.80;77.30;;;;;;5001150;28;20222;-72
2023/06/26 09:39:04;;;;;;;6.80;5.85;;;28.90;77.30;;;;;;5005319;28;20304;-72
2023/06/26 09:41:30;;;;;;;6.95;5.47;;;28.90;77.00;;;;;;5005871;28;20363;-74
2023/06/26 09:44:02;;;;;;;9.50;6.75;;;29.00;77.00;;;;;;5000724;28;20220;-71
2023/06/26 09:46:29;;;;;;;8.10;6.75;;;28.90;77.50;;;;;;4986658;28;20592;-72
2023/06/26 09:49:10;;;;;;;7.15;6.45;;;29.10;78.00;;;;;;4995683;28;20802;-71
2023/06/26 09:51:38;;;;;;;6.50;5.90;;;29.20;77.00;;;;;;4988594;28;20251;-75
2023/06/26 09:54:05;;;;;;;6.25;5.65;;;29.40;76.20;;;;;;5006000;28;20217;-71
2023/06/26 09:56:32;;;;;;;6.45;4.97;;;29.20;76.80;;;;;;5001056;28;20244;-72
2023/06/26 09:59:00;;;;;;;6.50;5.90;;;28.90;76.90;;;;;;5006107;28;20221;-72
2023/06/26 10:01:27;;;;;;;6.90;6.20;;;29.30;77.10;;;;;;5002334;28;20699;-72
2023/06/26 10:03:54;;;;;;;7.38;6.07;;;29.50;76.70;;;;;;5002361;28;20368;-72
2023/06/26 10:06:46;;;;;;;6.20;5.70;;;29.60;76.10;;;;;;5001257;28;20299;-73
2023/06/26 10:09:14;;;;;;;6.32;5.57;;;29.80;75.60;;;;;;5013051;28;20213;-72
2023/06/26 10:11:56;;;;;;;6.53;5.93;;;29.60;75.30;;;;;;5000498;28;20220;-71
2023/06/26 10:14:25;;;;;;;5.93;5.47;;;29.70;76.10;;;;;;4973419;28;20294;-71
2023/06/26 10:16:51;;;;;;;5.72;5.22;;;29.90;75.60;;;;;;4995803;28;20230;-71
2023/06/26 10:19:24;;;;;;;6.40;5.80;;;29.70;75.30;;;;;;4999028;28;20216;-72
2023/06/26 10:21:54;;;;;;;6.47;5.88;;;29.60;76.30;;;;;;5003840;28;20225;-72
2023/06/26 10:24:22;;;;;;;7.00;6.20;;;29.90;75.70;;;;;;4984248;28;20227;-72
2023/06/26 10:26:51;;;;;;;6.72;6.13;;;29.90;74.80;;;;;;4986550;28;20271;-72
2023/06/26 10:29:19;;;;;;;7.13;5.75;;;29.80;75.60;;;;;;5004102;28;20232;-72
2023/06/26 10:31:53;;;;;;;7.32;6.63;;;30.30;73.90;;;;;;5000285;28;20623;-71
2023/06/26 10:34:18;;;;;;;7.35;6.75;;;30.30;74.20;;;;;;5002445;28;20589;-73
2023/06/26 10:36:44;;;;;;;7.32;6.63;;;30.60;72.80;;;;;;5007405;28;20225;-71
2023/06/26 10:39:10;;;;;;;6.75;6.10;;;30.80;72.30;;;;;;4987155;28;20789;-73
2023/06/26 10:41:43;;;;;;;9.23;6.50;;;30.60;72.10;;;;;;5000187;28;20209;-72
2023/06/26 10:44:10;;;;;;;6.72;6.13;;;30.70;70.80;;;;;;4977366;28;20232;-71
2023/06/26 10:46:58;;;;;;;7.28;6.57;;;30.80;71.40;;;;;;5008974;28;20247;-72
2023/06/26 10:49:29;;;;;;;7.43;6.68;;;30.90;71.90;;;;;;5002855;28;20221;-72
2023/06/26 10:51:58;;;;;;;6.80;6.20;;;30.90;71.10;;;;;;4992176;28;20278;-72
2023/06/26 10:54:29;;;;;;;7.30;6.60;;;30.60;70.90;;;;;;5007132;28;20324;-71
2023/06/26 10:56:58;;;;;;;6.82;6.22;;;30.70;71.00;;;;;;5002841;28;20236;-72
2023/06/26 10:59:25;;;;;;;7.32;6.63;;;30.70;70.20;;;;;;5006318;28;20571;-71
2023/06/26 11:02:02;;;;;;;6.55;6.05;;;31.20;68.20;;;;;;5007531;28;20218;-72
2023/06/26 11:04:49;;;;;;;7.05;6.45;;;31.20;67.90;;;;;;5002949;28;20300;-72
2023/06/26 11:07:25;;;;;;;7.47;6.78;;;30.90;68.00;;;;;;5006024;28;20213;-72
2023/06/26 11:09:59;;;;;;;7.63;6.90;;;31.10;68.60;;;;;;5007369;28;20657;-72
2023/06/26 11:12:42;;;;;;;8.63;7.63;;;31.30;67.30;;;;;;5000871;28;20609;-72
2023/06/26 11:15:14;;;;;;;8.10;7.35;;;30.90;65.70;;;;;;5003214;28;20339;-71
2023/06/26 11:17:44;;;;;;;7.85;7.13;;;31.10;65.90;;;;;;4984293;28;20229;-72
2023/06/26 11:20:15;;;;;;;7.82;7.13;;;31.30;64.30;;;;;;5007244;28;20221;-71
2023/06/26 11:22:42;;;;;;;11.25;7.28;;;31.40;64.30;;;;;;5005091;28;20248;-71
2023/06/26 11:25:09;;;;;;;8.80;7.90;;;31.60;63.40;;;;;;5009673;28;20225;-72
2023/06/26 11:27:38;;;;;;;8.98;7.47;;;31.80;62.10;;;;;;5010668;28;20624;-72
2023/06/26 11:30:09;;;;;;;7.65;6.97;;;32.00;62.40;;;;;;4998099;28;20295;-72
2023/06/26 11:32:36;;;;;;;8.75;7.68;;;31.90;64.10;;;;;;5003975;28;20221;-71
2023/06/26 11:35:01;;;;;;;9.05;7.18;;;31.50;64.10;;;;;;5004864;28;20233;-72
2023/06/26 11:37:28;;;;;;;7.72;7.03;;;31.70;63.90;;;;;;4990938;28;20225;-71
2023/06/26 11:39:53;;;;;;;7.35;6.38;;;31.20;63.50;;;;;;5003993;28;20229;-72
2023/06/26 11:42:20;;;;;;;8.65;7.68;;;31.40;64.20;;;;;;5005610;28;22727;-72
2023/06/26 11:44:47;;;;;;;8.63;7.72;;;31.90;62.70;;;;;;5004024;28;20256;-72
2023/06/26 11:47:14;;;;;;;7.95;7.20;;;32.20;60.50;;;;;;5006575;28;20245;-73
2023/06/26 11:49:43;;;;;;;8.77;7.97;;;32.10;59.90;;;;;;4999410;28;20719;-72
2023/06/26 11:52:09;;;;;;;8.63;6.72;;;32.30;59.90;;;;;;4990246;28;20269;-71
2023/06/26 11:54:34;;;;;;;6.82;6.22;;;32.20;59.80;;;;;;5006235;28;20233;-72
2023/06/26 11:57:01;;;;;;;7.18;6.47;;;32.10;59.60;;;;;;4989853;28;20217;-71
2023/06/26 11:59:39;;;;;;;7.93;5.72;;;31.90;59.50;;;;;;5005865;28;20308;-72
2023/06/26 12:02:10;;;;;;;5.95;5.35;;;32.10;59.50;;;;;;5007139;28;20717;-73
2023/06/26 12:04:38;;;;;;;6.40;5.68;;;32.30;58.50;;;;;;5003179;28;20277;-71
2023/06/26 12:07:08;;;;;;;7.18;4.45;;;32.40;57.90;;;;;;5005176;28;20224;-71
2023/06/26 12:09:45;;;;;;;4.50;4.10;;;32.30;57.50;;;;;;4990147;28;20692;-71
2023/06/26 12:12:12;;;;;;;4.80;4.40;;;32.30;57.40;;;;;;4998959;28;20220;-72
2023/06/26 12:14:38;;;;;;;6.07;4.60;;;32.10;57.00;;;;;;4999510;28;20236;-72
2023/06/26 12:17:10;;;;;;;9.40;3.83;;;31.90;56.70;;;;;;4989887;28;20225;-71
2023/06/26 12:19:49;;;;;;;4.25;3.85;;;32.30;56.30;;;;;;5005347;28;20599;-71
2023/06/26 12:22:17;;;;;;;3.70;3.40;;;32.20;55.60;;;;;;5006222;28;20229;-74
2023/06/26 12:24:44;;;;;;;4.15;3.40;;;31.60;55.30;;;;;;5001760;28;20222;-70
2023/06/26 12:27:11;;;;;;;4.18;3.75;;;31.20;55.20;;;;;;4988362;28;20700;-71
2023/06/26 12:29:39;;;;;;;3.33;3.05;;;31.30;55.10;;;;;;5003474;28;20221;-73
2023/06/26 12:32:08;;;;;;;3.63;3.30;;;31.70;54.00;;;;;;5006217;28;20225;-70
2023/06/26 12:34:35;;;;;;;2.92;2.72;;;31.80;52.90;;;;;;5004643;28;20872;-71
2023/06/26 12:37:09;;;;;;;3.28;2.92;;;31.60;53.20;;;;;;5003918;28;20320;-72
2023/06/26 12:39:50;;;;;;;3.50;3.28;;;31.40;54.30;;;;;;5006521;28;20579;-74
2023/06/26 12:42:18;;;;;;;3.15;2.85;;;31.50;54.40;;;;;;5007339;28;20227;-73
2023/06/26 12:44:44;;;;;;;4.10;3.55;;;32.00;51.90;;;;;;5005870;28;20243;-71
2023/06/26 12:47:13;;;;;;;4.07;3.17;;;31.50;55.70;;;;;;5005100;28;20221;-71